sensor_id;sensor_type;location;lat;lon;timestamp;pressure;altitude;pressure_sealevel;temperature;humidity
64844;BME280;51310;52.198;5.422;2023-03-16T00:00:14;101551.19;;;3.03;100.00
64844;BME280;51310;52.198;5.422;2023-03-16T00:02:42;101548.59;;;3.09;100.00
64844;BME280;51310;52.198;5.422;2023-03-16T00:05:12;101545.81;;;3.07;100.00
64844;BME280;51310;52.198;5.422;2023-03-16T00:07:39;101548.59;;;3.09;100.00
64844;BME280;51310;52.198;5.422;2023-03-16T00:10:07;101553.69;;;3.09;100.00
64844;BME280;51310;52.198;5.422;2023-03-16T00:12:33;101551.13;;;3.09;100.00
64844;BME280;51310;52.198;5.422;2023-03-16T00:15:00;101541.88;;;3.10;100.00
64844;BME280;51310;52.198;5.422;2023-03-16T00:17:26;101532.81;;;3.12;100.00
64844;BME280;51310;52.198;5.422;2023-03-16T00:19:56;101530.06;;;3.10;100.00
64844;BME280;51310;52.198;5.422;2023-03-16T00:22:25;101525.88;;;3.11;100.00
64844;BME280;51310;52.198;5.422;2023-03-16T00:24:52;101522.44;;;3.10;100.00
64844;BME280;51310;52.198;5.422;2023-03-16T00:27:20;101519.59;;;3.14;100.00
64844;BME280;51310;52.198;5.422;2023-03-16T00:29:48;101516.16;;;3.14;100.00
64844;BME280;51310;52.198;5.422;2023-03-16T00:32:21;101509.84;;;3.17;100.00
64844;BME280;51310;52.198;5.422;2023-03-16T00:34:47;101504.75;;;3.17;100.00
64844;BME280;51310;52.198;5.422;2023-03-16T00:37:16;101503.31;;;3.19;100.00
64844;BME280;51310;52.198;5.422;2023-03-16T00:39:44;101505.69;;;3.18;100.00
64844;BME280;51310;52.198;5.422;2023-03-16T00:42:12;101500.78;;;3.19;100.00
64844;BME280;51310;52.198;5.422;2023-03-16T00:44:38;101494.38;;;3.16;100.00
64844;BME280;51310;52.198;5.422;2023-03-16T00:47:05;101500.59;;;3.18;100.00
64844;BME280;51310;52.198;5.422;2023-03-16T00:49:35;101501.28;;;3.17;100.00
64844;BME280;51310;52.198;5.422;2023-03-16T00:52:05;101495.50;;;3.18;100.00
64844;BME280;51310;52.198;5.422;2023-03-16T00:54:32;101489.91;;;3.20;100.00
64844;BME280;51310;52.198;5.422;2023-03-16T00:56:59;101498.97;;;3.18;100.00
64844;BME280;51310;52.198;5.422;2023-03-16T00:59:25;101484.84;;;3.20;100.00
64844;BME280;51310;52.198;5.422;2023-03-16T01:01:52;101485.06;;;3.22;100.00
64844;BME280;51310;52.198;5.422;2023-03-16T01:04:19;101482.50;;;3.22;100.00
64844;BME280;51310;52.198;5.422;2023-03-16T01:06:46;101479.25;;;3.23;100.00
64844;BME280;51310;52.198;5.422;2023-03-16T01:09:12;101476.19;;;3.25;100.00
64844;BME280;51310;52.198;5.422;2023-03-16T01:11:40;101464.19;;;3.24;100.00
64844;BME280;51310;52.198;5.422;2023-03-16T01:14:10;101469.47;;;3.26;100.00
64844;BME280;51310;52.198;5.422;2023-03-16T01:16:36;101453.06;;;3.24;100.00
64844;BME280;51310;52.198;5.422;2023-03-16T01:19:02;101451.66;;;3.26;100.00
64844;BME280;51310;52.198;5.422;2023-03-16T01:21:28;101453.00;;;3.29;100.00
64844;BME280;51310;52.198;5.422;2023-03-16T01:23:54;101448.22;;;3.25;100.00
64844;BME280;51310;52.198;5.422;2023-03-16T01:26:20;101449.75;;;3.31;100.00
64844;BME280;51310;52.198;5.422;2023-03-16T01:28:47;101448.41;;;3.27;100.00
64844;BME280;51310;52.198;5.422;2023-03-16T01:31:14;101442.00;;;3.23;100.00
64844;BME280;51310;52.198;5.422;2023-03-16T01:33:41;101438.25;;;3.27;100.00
64844;BME280;51310;52.198;5.422;2023-03-16T01:36:14;101428.75;;;3.26;100.00
64844;BME280;51310;52.198;5.422;2023-03-16T01:38:40;101435.69;;;3.27;100.00
64844;BME280;51310;52.198;5.422;2023-03-16T01:41:07;101428.97;;;3.27;100.00
64844;BME280;51310;52.198;5.422;2023-03-16T01:43:36;101424.31;;;3.31;100.00
64844;BME280;51310;52.198;5.422;2023-03-16T01:48:44;101424.31;;;3.31;100.00
64844;BME280;51310;52.198;5.422;2023-03-16T01:54:26;101417.38;;;3.29;100.00
64844;BME280;51310;52.198;5.422;2023-03-16T01:57:27;101398.88;;;3.31;100.00
64844;BME280;51310;52.198;5.422;2023-03-16T02:00:13;101403.03;;;3.30;100.00
64844;BME280;51310;52.198;5.422;2023-03-16T02:02:48;101396.13;;;3.29;100.00
64844;BME280;51310;52.198;5.422;2023-03-16T02:05:31;101401.22;;;3.29;100.00
64844;BME280;51310;52.198;5.422;2023-03-16T02:07:59;101400.09;;;3.27;100.00
64844;BME280;51310;52.198;5.422;2023-03-16T02:10:28;101391.34;;;3.25;100.00
64844;BME280;51310;52.198;5.422;2023-03-16T02:12:54;101398.44;;;3.27;100.00
64844;BME280;51310;52.198;5.422;2023-03-16T02:15:21;101400.91;;;3.33;100.00
64844;BME280;51310;52.198;5.422;2023-03-16T02:17:49;101396.94;;;3.35;100.00
64844;BME280;51310;52.198;5.422;2023-03-16T02:20:27;101388.19;;;3.33;100.00
64844;BME280;51310;52.198;5.422;2023-03-16T02:22:57;101385.44;;;3.32;100.00
64844;BME280;51310;52.198;5.422;2023-03-16T02:28:36;101376.31;;;3.39;100.00
64844;BME280;51310;52.198;5.422;2023-03-16T02:31:09;101376.09;;;3.38;100.00
64844;BME280;51310;52.198;5.422;2023-03-16T02:33:37;101371.38;;;3.41;100.00
64844;BME280;51310;52.198;5.422;2023-03-16T02:36:03;101373.94;;;3.41;100.00
64844;BME280;51310;52.198;5.422;2023-03-16T02:38:29;101379.03;;;3.41;100.00
64844;BME280;51310;52.198;5.422;2023-03-16T02:41:13;101376.47;;;3.41;100.00
64844;BME280;51310;52.198;5.422;2023-03-16T02:43:46;101374.44;;;3.38;100.00
64844;BME280;51310;52.198;5.422;2023-03-16T02:46:14;101377.41;;;3.41;100.00
64844;BME280;51310;52.198;5.422;2023-03-16T02:51:35;101367.25;;;3.41;100.00
64844;BME280;51310;52.198;5.422;2023-03-16T02:54:01;101376.31;;;3.39;100.00
64844;BME280;51310;52.198;5.422;2023-03-16T02:56:27;101379.31;;;3.37;100.00
64844;BME280;51310;52.198;5.422;2023-03-16T02:58:52;101374.44;;;3.38;100.00
64844;BME280;51310;52.198;5.422;2023-03-16T03:01:18;101382.59;;;3.36;100.00
64844;BME280;51310;52.198;5.422;2023-03-16T03:03:44;101377.72;;;3.37;100.00
64844;BME280;51310;52.198;5.422;2023-03-16T03:06:10;101379.13;;;3.35;100.00
64844;BME280;51310;52.198;5.422;2023-03-16T03:08:36;101373.09;;;3.35;100.00
64844;BME280;51310;52.198;5.422;2023-03-16T03:11:01;101371.50;;;3.35;100.00
64844;BME280;51310;52.198;5.422;2023-03-16T03:13:27;101365.00;;;3.37;100.00
64844;BME280;51310;52.198;5.422;2023-03-16T03:15:53;101362.75;;;3.33;100.00
64844;BME280;51310;52.198;5.422;2023-03-16T03:18:18;101360.59;;;3.36;100.00
64844;BME280;51310;52.198;5.422;2023-03-16T03:20:44;101364.56;;;3.34;100.00
64844;BME280;51310;52.198;5.422;2023-03-16T03:23:10;101360.91;;;3.32;100.00
64844;BME280;51310;52.198;5.422;2023-03-16T03:25:35;101366.41;;;3.35;100.00
64844;BME280;51310;52.198;5.422;2023-03-16T03:28:03;101365.09;;;3.32;100.00
64844;BME280;51310;52.198;5.422;2023-03-16T03:30:30;101359.31;;;3.33;100.00
64844;BME280;51310;52.198;5.422;2023-03-16T03:32:57;101353.09;;;3.31;100.00
64844;BME280;51310;52.198;5.422;2023-03-16T03:35:23;101350.13;;;3.27;100.00
64844;BME280;51310;52.198;5.422;2023-03-16T03:37:49;101348.09;;;3.25;100.00
64844;BME280;51310;52.198;5.422;2023-03-16T03:40:17;101336.28;;;3.25;100.00
64844;BME280;51310;52.198;5.422;2023-03-16T03:42:43;101330.28;;;3.25;100.00
64844;BME280;51310;52.198;5.422;2023-03-16T03:45:10;101325.00;;;3.23;100.00
64844;BME280;51310;52.198;5.422;2023-03-16T03:47:38;101334.97;;;3.22;100.00
64844;BME280;51310;52.198;5.422;2023-03-16T03:50:05;101324.38;;;3.19;100.00
64844;BME280;51310;52.198;5.422;2023-03-16T03:52:32;101323.25;;;3.17;100.00
64844;BME280;51310;52.198;5.422;2023-03-16T03:54:57;101314.00;;;3.17;100.00
64844;BME280;51310;52.198;5.422;2023-03-16T03:57:23;101320.50;;;3.15;100.00
64844;BME280;51310;52.198;5.422;2023-03-16T03:59:49;101327.94;;;3.14;100.00
64844;BME280;51310;52.198;5.422;2023-03-16T04:02:15;101315.03;;;3.12;100.00
64844;BME280;51310;52.198;5.422;2023-03-16T04:04:42;101317.78;;;3.14;100.00
64844;BME280;51310;52.198;5.422;2023-03-16T04:07:08;101320.84;;;3.11;100.00
64844;BME280;51310;52.198;5.422;2023-03-16T04:09:35;101306.28;;;3.10;100.00
64844;BME280;51310;52.198;5.422;2023-03-16T04:12:03;101307.41;;;3.12;100.00
64844;BME280;51310;52.198;5.422;2023-03-16T04:14:30;101312.47;;;3.12;100.00
64844;BME280;51310;52.198;5.422;2023-03-16T04:16:56;101312.09;;;3.09;100.00
64844;BME280;51310;52.198;5.422;2023-03-16T04:19:22;101304.03;;;3.06;100.00
64844;BME280;51310;52.198;5.422;2023-03-16T04:21:49;101303.34;;;3.07;100.00
64844;BME280;51310;52.198;5.422;2023-03-16T04:24:16;101300.19;;;3.02;100.00
64844;BME280;51310;52.198;5.422;2023-03-16T04:26:44;101298.63;;;2.97;100.00
64844;BME280;51310;52.198;5.422;2023-03-16T04:29:14;101302.09;;;2.98;100.00
64844;BME280;51310;52.198;5.422;2023-03-16T04:31:43;101297.94;;;2.98;100.00
64844;BME280;51310;52.198;5.422;2023-03-16T04:34:10;101298.41;;;2.96;100.00
64844;BME280;51310;52.198;5.422;2023-03-16T04:36:37;101295.69;;;2.94;100.00
64844;BME280;51310;52.198;5.422;2023-03-16T04:39:04;101297.28;;;2.94;100.00
64844;BME280;51310;52.198;5.422;2023-03-16T04:41:31;101305.56;;;2.98;100.00
64844;BME280;51310;52.198;5.422;2023-03-16T04:43:57;101295.56;;;3.00;100.00
64844;BME280;51310;52.198;5.422;2023-03-16T04:46:24;101293.25;;;3.01;100.00
64844;BME280;51310;52.198;5.422;2023-03-16T04:48:51;101293.63;;;3.04;100.00
64844;BME280;51310;52.198;5.422;2023-03-16T04:51:17;101296.63;;;3.07;100.00
64844;BME280;51310;52.198;5.422;2023-03-16T04:53:43;101291.75;;;3.09;100.00
64844;BME280;51310;52.198;5.422;2023-03-16T04:56:10;101291.22;;;3.12;100.00
64844;BME280;51310;52.198;5.422;2023-03-16T04:58:44;101291.63;;;3.15;100.00
64844;BME280;51310;52.198;5.422;2023-03-16T05:01:10;101299.16;;;3.20;100.00
64844;BME280;51310;52.198;5.422;2023-03-16T05:03:36;101294.59;;;3.18;100.00
64844;BME280;51310;52.198;5.422;2023-03-16T05:06:01;101292.22;;;3.19;100.00
64844;BME280;51310;52.198;5.422;2023-03-16T05:08:27;101294.75;;;3.19;100.00
64844;BME280;51310;52.198;5.422;2023-03-16T05:10:57;101286.44;;;3.20;100.00
64844;BME280;51310;52.198;5.422;2023-03-16T05:13:23;101291.00;;;3.23;100.00
64844;BME280;51310;52.198;5.422;2023-03-16T05:15:50;101288.47;;;3.23;100.00
64844;BME280;51310;52.198;5.422;2023-03-16T05:18:19;101283.78;;;3.26;100.00
64844;BME280;51310;52.198;5.422;2023-03-16T05:20:52;101290.72;;;3.27;100.00
64844;BME280;51310;52.198;5.422;2023-03-16T05:23:19;101279.41;;;3.25;100.00
64844;BME280;51310;52.198;5.422;2023-03-16T05:25:46;101279.63;;;3.26;100.00
64844;BME280;51310;52.198;5.422;2023-03-16T05:28:12;101280.94;;;3.30;100.00
64844;BME280;51310;52.198;5.422;2023-03-16T05:30:38;101274.94;;;3.29;100.00
64844;BME280;51310;52.198;5.422;2023-03-16T05:33:04;101272.59;;;3.31;100.00
64844;BME280;51310;52.198;5.422;2023-03-16T05:35:29;101281.34;;;3.33;100.00
64844;BME280;51310;52.198;5.422;2023-03-16T05:37:55;101272.59;;;3.31;100.00
64844;BME280;51310;52.198;5.422;2023-03-16T05:40:21;101274.63;;;3.34;100.00
64844;BME280;51310;52.198;5.422;2023-03-16T05:42:54;101274.84;;;3.35;100.00
64844;BME280;51310;52.198;5.422;2023-03-16T05:45:20;101273.72;;;3.33;100.00
64844;BME280;51310;52.198;5.422;2023-03-16T05:47:46;101276.25;;;3.33;100.00
64844;BME280;51310;52.198;5.422;2023-03-16T05:50:13;101263.53;;;3.33;100.00
64844;BME280;51310;52.198;5.422;2023-03-16T05:52:43;101267.72;;;3.33;100.00
64844;BME280;51310;52.198;5.422;2023-03-16T05:55:11;101264.53;;;3.28;100.00
64844;BME280;51310;52.198;5.422;2023-03-16T05:57:39;101256.00;;;3.27;100.00
64844;BME280;51310;52.198;5.422;2023-03-16T06:00:11;101255.78;;;3.26;100.00
64844;BME280;51310;52.198;5.422;2023-03-16T06:02:41;101262.72;;;3.27;100.00
64844;BME280;51310;52.198;5.422;2023-03-16T06:05:08;101253.25;;;3.26;100.00
64844;BME280;51310;52.198;5.422;2023-03-16T06:07:35;101250.72;;;3.26;100.00
64844;BME280;51310;52.198;5.422;2023-03-16T06:10:00;101250.72;;;3.26;100.00
64844;BME280;51310;52.198;5.422;2023-03-16T06:12:27;101251.81;;;3.28;100.00
64844;BME280;51310;52.198;5.422;2023-03-16T06:14:52;101248.38;;;3.27;100.00
64844;BME280;51310;52.198;5.422;2023-03-16T06:17:18;101256.91;;;3.28;100.00
64844;BME280;51310;52.198;5.422;2023-03-16T06:19:44;101250.22;;;3.28;100.00
64844;BME280;51310;52.198;5.422;2023-03-16T06:22:10;101239.75;;;3.33;100.00
64844;BME280;51310;52.198;5.422;2023-03-16T06:24:35;101238.50;;;3.36;100.00
64844;BME280;51310;52.198;5.422;2023-03-16T06:27:01;101230.16;;;3.37;100.00
64844;BME280;51310;52.198;5.422;2023-03-16T06:29:27;101222.00;;;3.40;100.00
64844;BME280;51310;52.198;5.422;2023-03-16T06:31:52;101233.31;;;3.42;100.00
64844;BME280;51310;52.198;5.422;2023-03-16T06:34:20;101232.03;;;3.45;100.00
64844;BME280;51310;52.198;5.422;2023-03-16T06:36:45;101235.22;;;3.50;100.00
64844;BME280;51310;52.198;5.422;2023-03-16T06:39:11;101239.06;;;3.54;100.00
64844;BME280;51310;52.198;5.422;2023-03-16T06:41:39;101230.22;;;3.57;100.00
64844;BME280;51310;52.198;5.422;2023-03-16T06:44:07;101233.13;;;3.60;100.00
64844;BME280;51310;52.198;5.422;2023-03-16T06:46:33;101225.50;;;3.60;100.00
64844;BME280;51310;52.198;5.422;2023-03-16T06:48:59;101230.59;;;3.60;100.00
64844;BME280;51310;52.198;5.422;2023-03-16T06:51:26;101227.03;;;3.65;100.00
64844;BME280;51310;52.198;5.422;2023-03-16T06:53:52;101222.84;;;3.66;100.00
64844;BME280;51310;52.198;5.422;2023-03-16T06:56:18;101219.25;;;3.71;100.00
64844;BME280;51310;52.198;5.422;2023-03-16T06:58:43;101226.56;;;3.75;100.00
64844;BME280;51310;52.198;5.422;2023-03-16T07:01:09;101214.13;;;3.84;100.00
64844;BME280;51310;52.198;5.422;2023-03-16T07:03:37;101222.34;;;3.88;100.00
64844;BME280;51310;52.198;5.422;2023-03-16T07:06:03;101212.25;;;3.96;100.00
64844;BME280;51310;52.198;5.422;2023-03-16T07:08:28;101217.78;;;4.06;100.00
64844;BME280;51310;52.198;5.422;2023-03-16T07:10:54;101207.69;;;4.13;100.00
64844;BME280;51310;52.198;5.422;2023-03-16T07:13:20;101208.47;;;4.19;100.00
64844;BME280;51310;52.198;5.422;2023-03-16T07:15:49;101210.69;;;4.23;100.00
64844;BME280;51310;52.198;5.422;2023-03-16T07:18:15;101218.91;;;4.28;100.00
64844;BME280;51310;52.198;5.422;2023-03-16T07:20:40;101211.59;;;4.24;100.00
64844;BME280;51310;52.198;5.422;2023-03-16T07:23:06;101219.41;;;4.25;100.00
64844;BME280;51310;52.198;5.422;2023-03-16T07:25:32;101220.88;;;4.23;100.00
64844;BME280;51310;52.198;5.422;2023-03-16T07:27:57;101218.50;;;4.25;100.00
64844;BME280;51310;52.198;5.422;2023-03-16T07:30:23;101216.88;;;4.25;100.00
64844;BME280;51310;52.198;5.422;2023-03-16T07:32:50;101213.03;;;4.22;100.00
64844;BME280;51310;52.198;5.422;2023-03-16T07:35:16;101206.19;;;4.28;100.00
64844;BME280;51310;52.198;5.422;2023-03-16T07:37:42;101211.00;;;4.19;100.00
64844;BME280;51310;52.198;5.422;2023-03-16T07:40:08;101204.06;;;4.18;100.00
64844;BME280;51310;52.198;5.422;2023-03-16T07:42:35;101207.34;;;4.17;100.00
64844;BME280;51310;52.198;5.422;2023-03-16T07:45:03;101213.34;;;4.18;100.00
64844;BME280;51310;52.198;5.422;2023-03-16T07:47:29;101210.69;;;4.23;100.00
64844;BME280;51310;52.198;5.422;2023-03-16T07:49:56;101217.38;;;4.23;100.00
64844;BME280;51310;52.198;5.422;2023-03-16T07:52:22;101215.78;;;4.23;100.00
64844;BME280;51310;52.198;5.422;2023-03-16T07:54:48;101209.75;;;4.23;100.00
64844;BME280;51310;52.198;5.422;2023-03-16T07:57:14;101214.16;;;4.24;100.00
64844;BME280;51310;52.198;5.422;2023-03-16T07:59:40;101216.50;;;4.22;100.00
64844;BME280;51310;52.198;5.422;2023-03-16T08:02:11;101219.34;;;4.18;100.00
64844;BME280;51310;52.198;5.422;2023-03-16T08:04:37;101212.13;;;4.21;100.00
64844;BME280;51310;52.198;5.422;2023-03-16T08:07:03;101225.03;;;4.23;100.00
64844;BME280;51310;52.198;5.422;2023-03-16T08:09:28;101214.72;;;4.28;100.00
64844;BME280;51310;52.198;5.422;2023-03-16T08:11:54;101210.13;;;4.46;100.00
64844;BME280;51310;52.198;5.422;2023-03-16T08:14:20;101211.22;;;4.48;100.00
64844;BME280;51310;52.198;5.422;2023-03-16T08:16:45;101208.81;;;4.62;100.00
64844;BME280;51310;52.198;5.422;2023-03-16T08:19:11;101207.22;;;4.77;100.00
64844;BME280;51310;52.198;5.422;2023-03-16T08:21:37;101204.44;;;4.96;100.00
64844;BME280;51310;52.198;5.422;2023-03-16T08:24:03;101192.25;;;5.00;100.00
64844;BME280;51310;52.198;5.422;2023-03-16T08:26:29;101183.19;;;5.09;100.00
64844;BME280;51310;52.198;5.422;2023-03-16T08:28:54;101185.91;;;5.11;100.00
64844;BME280;51310;52.198;5.422;2023-03-16T08:31:20;101189.38;;;5.11;100.00
64844;BME280;51310;52.198;5.422;2023-03-16T08:33:48;101170.06;;;5.13;100.00
64844;BME280;51310;52.198;5.422;2023-03-16T08:36:16;101182.66;;;5.12;100.00
64844;BME280;51310;52.198;5.422;2023-03-16T08:38:42;101187.38;;;5.16;100.00
64844;BME280;51310;52.198;5.422;2023-03-16T08:41:09;101186.34;;;5.21;100.00
64844;BME280;51310;52.198;5.422;2023-03-16T08:43:37;101181.78;;;5.26;100.00
64844;BME280;51310;52.198;5.422;2023-03-16T08:46:02;101183.66;;;5.34;100.00
64844;BME280;51310;52.198;5.422;2023-03-16T08:48:30;101190.22;;;5.32;100.00
64844;BME280;51310;52.198;5.422;2023-03-16T08:51:04;101190.41;;;5.41;100.00
64844;BME280;51310;52.198;5.422;2023-03-16T08:53:31;101189.16;;;5.44;100.00
64844;BME280;51310;52.198;5.422;2023-03-16T08:56:10;101192.78;;;5.39;100.00
64844;BME280;51310;52.198;5.422;2023-03-16T08:58:41;101183.53;;;5.47;100.00
64844;BME280;51310;52.198;5.422;2023-03-16T09:01:14;101186.28;;;5.55;100.00
64844;BME280;51310;52.198;5.422;2023-03-16T09:03:42;101183.69;;;5.48;100.00
64844;BME280;51310;52.198;5.422;2023-03-16T09:06:12;101187.38;;;5.58;100.00
64844;BME280;51310;52.198;5.422;2023-03-16T09:08:40;101186.13;;;5.68;100.00
64844;BME280;51310;52.198;5.422;2023-03-16T09:11:12;101178.66;;;5.77;100.00
64844;BME280;51310;52.198;5.422;2023-03-16T09:13:40;101185.22;;;5.89;100.00
64844;BME280;51310;52.198;5.422;2023-03-16T09:16:08;101174.66;;;5.93;100.00
64844;BME280;51310;52.198;5.422;2023-03-16T09:18:35;101169.06;;;6.03;100.00
64844;BME280;51310;52.198;5.422;2023-03-16T09:21:06;101182.19;;;6.06;100.00
64844;BME280;51310;52.198;5.422;2023-03-16T09:23:34;101174.69;;;6.15;100.00
64844;BME280;51310;52.198;5.422;2023-03-16T09:26:05;101173.81;;;6.07;100.00
64844;BME280;51310;52.198;5.422;2023-03-16T09:28:34;101172.16;;;6.15;100.00
64844;BME280;51310;52.198;5.422;2023-03-16T09:31:00;101179.09;;;6.16;100.00
64844;BME280;51310;52.198;5.422;2023-03-16T09:33:28;101170.50;;;6.08;100.00
64844;BME280;51310;52.198;5.422;2023-03-16T09:35:55;101175.81;;;6.10;100.00
64844;BME280;51310;52.198;5.422;2023-03-16T09:38:23;101166.31;;;6.02;100.00
64844;BME280;51310;52.198;5.422;2023-03-16T09:44:00;101168.31;;;6.04;100.00
64844;BME280;51310;52.198;5.422;2023-03-16T09:46:34;101170.16;;;6.05;100.00
64844;BME280;51310;52.198;5.422;2023-03-16T09:49:02;101158.09;;;6.04;100.00
64844;BME280;51310;52.198;5.422;2023-03-16T09:51:50;101167.41;;;6.11;100.00
64844;BME280;51310;52.198;5.422;2023-03-16T09:54:48;101155.72;;;6.27;100.00
64844;BME280;51310;52.198;5.422;2023-03-16T09:57:33;101168.13;;;6.46;100.00
64844;BME280;51310;52.198;5.422;2023-03-16T10:00:21;101162.06;;;6.60;100.00
64844;BME280;51310;52.198;5.422;2023-03-16T10:05:56;101153.25;;;6.79;100.00
64844;BME280;51310;52.198;5.422;2023-03-16T10:08:31;101146.63;;;6.88;100.00
64844;BME280;51310;52.198;5.422;2023-03-16T10:11:25;101136.03;;;6.92;100.00
64844;BME280;51310;52.198;5.422;2023-03-16T10:17:28;101130.69;;;7.66;100.00
64844;BME280;51310;52.198;5.422;2023-03-16T10:19:58;101135.16;;;7.83;100.00
64844;BME280;51310;52.198;5.422;2023-03-16T10:22:32;101129.41;;;7.69;100.00
64844;BME280;51310;52.198;5.422;2023-03-16T10:25:34;101134.47;;;7.76;100.00
64844;BME280;51310;52.198;5.422;2023-03-16T10:28:00;101139.81;;;7.71;100.00
64844;BME280;51310;52.198;5.422;2023-03-16T10:30:31;101136.53;;;7.72;100.00
64844;BME280;51310;52.198;5.422;2023-03-16T10:33:21;101132.88;;;7.70;100.00
64844;BME280;51310;52.198;5.422;2023-03-16T10:41:30;101119.44;;;8.26;100.00
64844;BME280;51310;52.198;5.422;2023-03-16T10:43:59;101126.94;;;8.24;100.00
64844;BME280;51310;52.198;5.422;2023-03-16T10:46:41;101115.84;;;8.16;100.00
64844;BME280;51310;52.198;5.422;2023-03-16T10:54:57;101111.88;;;8.50;100.00
64844;BME280;51310;52.198;5.422;2023-03-16T10:57:26;101110.31;;;8.75;100.00
64844;BME280;51310;52.198;5.422;2023-03-16T10:59:54;101099.13;;;8.91;100.00
64844;BME280;51310;52.198;5.422;2023-03-16T11:02:32;101104.00;;;9.12;100.00
64844;BME280;51310;52.198;5.422;2023-03-16T11:04:59;101096.16;;;8.95;100.00
64844;BME280;51310;52.198;5.422;2023-03-16T11:07:35;101094.31;;;9.10;100.00
64844;BME280;51310;52.198;5.422;2023-03-16T11:13:31;101086.94;;;9.13;100.00
64844;BME280;51310;52.198;5.422;2023-03-16T11:18:55;101081.78;;;9.13;100.00
64844;BME280;51310;52.198;5.422;2023-03-16T11:21:46;101087.28;;;9.16;100.00
64844;BME280;51310;52.198;5.422;2023-03-16T11:25:16;101081.25;;;8.99;100.00
64844;BME280;51310;52.198;5.422;2023-03-16T11:27:52;101073.00;;;9.11;99.48
64844;BME280;51310;52.198;5.422;2023-03-16T11:30:55;101065.38;;;9.19;100.00
64844;BME280;51310;52.198;5.422;2023-03-16T11:33:26;101064.53;;;9.28;99.87
64844;BME280;51310;52.198;5.422;2023-03-16T11:45:57;101060.56;;;9.47;93.24
64844;BME280;51310;52.198;5.422;2023-03-16T11:49:13;101059.38;;;9.52;94.29
64844;BME280;51310;52.198;5.422;2023-03-16T11:55:09;101063.00;;;9.79;90.77
64844;BME280;51310;52.198;5.422;2023-03-16T12:00:38;101045.69;;;10.02;89.37
64844;BME280;51310;52.198;5.422;2023-03-16T12:06:45;101026.34;;;10.15;88.30
64844;BME280;51310;52.198;5.422;2023-03-16T12:09:57;101030.06;;;10.34;86.41
64844;BME280;51310;52.198;5.422;2023-03-16T12:12:55;101020.97;;;10.29;85.71
64844;BME280;51310;52.198;5.422;2023-03-16T12:15:45;101026.41;;;10.32;84.84
64844;BME280;51310;52.198;5.422;2023-03-16T12:21:09;101013.00;;;10.43;82.25
64844;BME280;51310;52.198;5.422;2023-03-16T12:23:49;101016.75;;;10.47;82.07
64844;BME280;51310;52.198;5.422;2023-03-16T12:26:18;101009.19;;;10.49;81.91
64844;BME280;51310;52.198;5.422;2023-03-16T12:28:46;101012.84;;;10.68;80.32
64844;BME280;51310;52.198;5.422;2023-03-16T12:31:39;100996.03;;;10.89;80.33
64844;BME280;51310;52.198;5.422;2023-03-16T12:34:50;101002.06;;;10.98;78.40
64844;BME280;51310;52.198;5.422;2023-03-16T12:37:56;100992.63;;;11.16;76.97
64844;BME280;51310;52.198;5.422;2023-03-16T12:46:11;100982.19;;;11.87;73.86
64844;BME280;51310;52.198;5.422;2023-03-16T12:49:08;100981.19;;;11.77;70.57
64844;BME280;51310;52.198;5.422;2023-03-16T12:51:39;100967.75;;;11.70;68.60
64844;BME280;51310;52.198;5.422;2023-03-16T12:54:18;100964.69;;;11.66;67.99
64844;BME280;51310;52.198;5.422;2023-03-16T12:56:47;100964.13;;;11.87;68.17
64844;BME280;51310;52.198;5.422;2023-03-16T12:59:22;100974.22;;;12.12;67.12
64844;BME280;51310;52.198;5.422;2023-03-16T13:01:58;100955.78;;;12.18;66.07
64844;BME280;51310;52.198;5.422;2023-03-16T13:04:38;100952.81;;;12.32;66.49
64844;BME280;51310;52.198;5.422;2023-03-16T13:07:18;100940.13;;;12.25;64.15
64844;BME280;51310;52.198;5.422;2023-03-16T13:09:53;100933.91;;;12.23;64.34
64844;BME280;51310;52.198;5.422;2023-03-16T13:12:30;100938.56;;;12.08;65.20
64844;BME280;51310;52.198;5.422;2023-03-16T13:14:57;100928.25;;;11.80;64.85
64844;BME280;51310;52.198;5.422;2023-03-16T13:17:32;100919.78;;;11.73;66.11
64844;BME280;51310;52.198;5.422;2023-03-16T13:22:49;100912.91;;;11.82;66.24
64844;BME280;51310;52.198;5.422;2023-03-16T13:27:58;100908.41;;;11.98;62.92
64844;BME280;51310;52.198;5.422;2023-03-16T13:30:30;100915.00;;;11.95;61.12
64844;BME280;51310;52.198;5.422;2023-03-16T13:33:18;100909.47;;;12.00;60.33
64844;BME280;51310;52.198;5.422;2023-03-16T13:35:48;100917.22;;;12.00;59.46
64844;BME280;51310;52.198;5.422;2023-03-16T13:38:16;100906.56;;;12.06;60.32
64844;BME280;51310;52.198;5.422;2023-03-16T13:40:49;100911.91;;;12.18;60.06
64844;BME280;51310;52.198;5.422;2023-03-16T13:43:20;100900.47;;;12.24;59.26
64844;BME280;51310;52.198;5.422;2023-03-16T13:45:47;100895.53;;;12.17;57.59
64844;BME280;51310;52.198;5.422;2023-03-16T13:48:15;100895.75;;;12.29;59.32
64844;BME280;51310;52.198;5.422;2023-03-16T13:50:43;100885.84;;;12.34;57.24
64844;BME280;51310;52.198;5.422;2023-03-16T13:53:30;100890.00;;;12.42;56.89
64844;BME280;51310;52.198;5.422;2023-03-16T13:55:59;100873.91;;;12.44;55.92
64844;BME280;51310;52.198;5.422;2023-03-16T13:58:36;100893.59;;;12.34;55.90
64844;BME280;51310;52.198;5.422;2023-03-16T14:01:26;100878.84;;;12.32;55.47
64844;BME280;51310;52.198;5.422;2023-03-16T14:03:57;100883.84;;;12.50;56.47
64844;BME280;51310;52.198;5.422;2023-03-16T14:06:28;100892.31;;;12.58;55.61
64844;BME280;51310;52.198;5.422;2023-03-16T14:09:14;100892.22;;;12.66;54.81
64844;BME280;51310;52.198;5.422;2023-03-16T14:11:40;100884.97;;;12.62;55.09
64844;BME280;51310;52.198;5.422;2023-03-16T14:14:46;100879.28;;;12.96;54.29
64844;BME280;51310;52.198;5.422;2023-03-16T14:17:20;100868.03;;;12.95;53.16
64844;BME280;51310;52.198;5.422;2023-03-16T14:19:56;100869.78;;;12.76;53.07